Shakopee, Minnesota
Current Conditions -  °F | °C
As of 10:53 PM on Friday 21 Nov 2014 (Local Time) from KFCM Reporting Station
Scattered Clouds Scattered Clouds  
Wind Chill: 22°   Ceiling: Unl
Heat Index: 32°   Visibility: 7mi
Dew Point: 28°   Wind: 14mph
Humidity: 85%   Direction: 200°SSW
Pressure: 29.87"   Gusts: NA
Location:  44.8°N, 93.53°W
Report Text: KFCM 220453Z AUTO 20012KT 7SM SCT014 00/M02 A2987 RMK AO2 SLP128 T00001022
Loading
Personal Weather Stations






























Interactive Weather Map New forecast layout! Learn more

10-Day Weather Forecast

Advertisements
Track Severe Weather on mobile